This is the latest recevied weather packets stored in our database for station/object DG0PX-12. If no packets are shown the sender has not sent any weather packets the latest 10 day(s).
| Time | Temp. | Humidity | Pressure | Rain* | Wind** | Luminosity | Snow |
|---|---|---|---|---|---|---|---|
| 1787574557 | 33.33° C | 27% | 952.3 hPa | - | - | - | - |
| 1787573657 | 31.67° C | 29% | 952.3 hPa | - | - | - | - |
| 1787572757 | 30° C | 29% | 952.2 hPa | - | - | - | - |
| 1787571857 | 31.11° C | 27% | 952.6 hPa | - | - | - | - |
| 1787570957 | 29.44° C | 30% | 952.6 hPa | - | - | - | - |
| 1787570057 | 28.33° C | 30% | 952.7 hPa | - | - | - | - |
| 1787569157 | 27.78° C | 32% | 952.8 hPa | - | - | - | - |
| 1787568257 | 29.44° C | 33% | 952.8 hPa | - | - | - | - |
| 1787567357 | 26.67° C | 38% | 952.7 hPa | - | - | - | - |
| 1787566457 | 26.11° C | 39% | 952.9 hPa | - | - | - | - |
| 1787565557 | 25° C | 42% | 952.6 hPa | - | - | - | - |
| 1787564656 | 25° C | 41% | 952.9 hPa | - | - | - | - |
| 1787563759 | 26.11° C | 39% | 953 hPa | - | - | - | - |
| 1787562856 | 25° C | 43% | 953.1 hPa | - | - | - | - |
| 1787561958 | 25.56° C | 41% | 953.3 hPa | - | - | - | - |
| 1787561056 | 25.56° C | 43% | 953.3 hPa | - | - | - | - |
| 1787560156 | 23.89° C | 46% | 953.2 hPa | - | - | - | - |
| 1787559256 | 23.89° C | 49% | 953.1 hPa | - | - | - | - |
| 1787558356 | 23.33° C | 50% | 953.1 hPa | - | - | - | - |
| 1787557456 | 23.33° C | 51% | 953 hPa | - | - | - | - |
| 1787556556 | 22.78° C | 52% | 953 hPa | - | - | - | - |
| 1787555656 | 22.22° C | 49% | 953.2 hPa | - | - | - | - |
| 1787554756 | 23.33° C | 47% | 953.4 hPa | - | - | - | - |
| 1787553856 | 24.44° C | 45% | 953.6 hPa | - | - | - | - |
| 1787552956 | 24.44° C | 45% | 953.6 hPa | - | - | - | - |
* Rain since midnight (hover to see other rain measurements)
** Current wind speed in m/s (hover to see current wind gust speed)